Chaves — CQMY — position and weather

sailwx.info

Track history (hours):
 
Tides and Currents Weather Stations Pressure Air Temp Water Temp Dewpoint Dewpoint Depression Visibility Wind Speed Wind Dir Waves Ship Positions

Chaves

Last reported at 2018-Jun-25 11:09 UTC. Time now 2018-Jun-25 19:44 UTC.
Position N 51°34' W 002°59'.

Length 90 m; draft 5.3 m.

Type: Cargo ship. MMSI: 255803660.

Date/timePositionNaut miles runAvg speedWind from/ knotsBaromVisibWave heightAir tempDewpointWater temp
2018-Jun-25 11:09N 51°34' W 002°59'0 0.0
2018-Jun-25 11:00N 51°34' W 002°59'0 0.0
2018-Jun-25 10:30N 51°34' W 002°59'0 0.0
2018-Jun-25 09:51N 51°34' W 002°59'0 0.0
2018-Jun-25 09:27N 51°34' W 002°59'0 0.0
2018-Jun-25 08:27N 51°34' W 002°59'0 0.0
2018-Jun-25 08:00N 51°34' W 002°59'0 0.0
2018-Jun-25 07:28N 51°34' W 002°59'0 0.3
2018-Jun-25 07:00N 51°34' W 002°59'1 1.2
2018-Jun-25 06:30N 51°33' W 002°59'0 0.5
2018-Jun-25 06:00N 51°33' W 002°59'2 3.5
2018-Jun-25 05:31N 51°31' W 002°59'4 8.4
2018-Jun-25 05:00N 51°28' W 003°02'610.1
2018-Jun-25 04:24N 51°23' W 003°09'411.4
2018-Jun-25 04:00N 51°21' W 003°15'18 9.0
2018-Jun-25 02:01N 51°19' W 003°44'1 4.4
2018-Jun-25 01:53N 51°19' W 003°43'1 1.2
2018-Jun-25 01:20N 51°19' W 003°44'4 2.5
2018-Jun-24 23:54N 51°20' W 003°50'11 9.6
2018-Jun-24 22:44N 51°18' W 004°08'9 9.8
2018-Jun-24 21:49N 51°17' W 004°22'3 9.8
2018-Jun-24 21:30N 51°17' W 004°27'5 9.1
2018-Jun-24 20:55N 51°16' W 004°35'4 9.1
2018-Jun-24 20:29N 51°15' W 004°41'4 8.7
2018-Jun-24 20:01N 51°13' W 004°47'4 8.7
2018-Jun-24 19:30N 51°10' W 004°52'4 8.8
2018-Jun-24 19:01N 51°07' W 004°57'5 9.6
2018-Jun-24 18:31N 51°03' W 005°02'5 9.6
2018-Jun-24 18:00N 50°60' W 005°06'5 9.7
2018-Jun-24 17:30N 50°56' W 005°11'5 9.9
2018-Jun-24 17:00N 50°52' W 005°16'510.3
2018-Jun-24 16:31N 50°48' W 005°21'510.7
2018-Jun-24 16:01N 50°44' W 005°27'510.9
2018-Jun-24 15:30N 50°40' W 005°32'611.2
2018-Jun-24 15:01N 50°35' W 005°37'611.4
2018-Jun-24 14:31N 50°31' W 005°43'611.6
2018-Jun-24 14:00N 50°26' W 005°49'611.1
2018-Jun-24 13:30N 50°21' W 005°52'611.8
2018-Jun-24 13:00N 50°15' W 005°53'611.9
2018-Jun-24 12:30N 50°09' W 005°53'1011.6
2018-Jun-24 11:41N 49°60' W 005°53'211.0
2018-Jun-24 11:30N 49°58' W 005°53'810.9
2018-Jun-24 10:46N 49°50' W 005°57'3210.5
2018-Jun-24 07:46N 49°19' W 006°09'3 9.9
2018-Jun-24 07:29N 49°17' W 006°10'5 9.9
2018-Jun-24 07:01N 49°12' W 006°12'5 9.7
2018-Jun-24 06:30N 49°08' W 006°14'5 9.5
2018-Jun-24 06:01N 49°03' W 006°16'10 9.7
2018-Jun-24 04:58N 48°54' W 006°22'5310.2
2018-Jun-23 23:43N 48°03' W 006°47'2210.8
2018-Jun-23 21:43N 47°43' W 007°01'  
Track history (hours):
 
Tides and Currents Weather Stations Pressure Air Temp Water Temp Dewpoint Dewpoint Depression Visibility Wind Speed Wind Dir Waves Ship Positions

Chaves

Last reported at 2018-Jun-25 11:09 UTC. Time now 2018-Jun-25 19:44 UTC.
Position N 51°34' W 002°59'.

Length 90 m; draft 5.3 m.

Type: Cargo ship. MMSI: 255803660.

Date/timePositionNaut miles runAvg speedWind from/ knotsBaromVisibWave heightAir tempDewpointWater temp
2018-Jun-25 11:09N 51°34' W 002°59'0 0.0
2018-Jun-25 11:00N 51°34' W 002°59'0 0.0
2018-Jun-25 10:30N 51°34' W 002°59'0 0.0
2018-Jun-25 09:51N 51°34' W 002°59'0 0.0
2018-Jun-25 09:27N 51°34' W 002°59'0 0.0
2018-Jun-25 08:27N 51°34' W 002°59'0 0.0
2018-Jun-25 08:00N 51°34' W 002°59'0 0.0
2018-Jun-25 07:28N 51°34' W 002°59'0 0.3
2018-Jun-25 07:00N 51°34' W 002°59'1 1.2
2018-Jun-25 06:30N 51°33' W 002°59'0 0.5
2018-Jun-25 06:00N 51°33' W 002°59'2 3.5
2018-Jun-25 05:31N 51°31' W 002°59'4 8.4
2018-Jun-25 05:00N 51°28' W 003°02'610.1
2018-Jun-25 04:24N 51°23' W 003°09'411.4
2018-Jun-25 04:00N 51°21' W 003°15'18 9.0
2018-Jun-25 02:01N 51°19' W 003°44'1 4.4
2018-Jun-25 01:53N 51°19' W 003°43'1 1.2
2018-Jun-25 01:20N 51°19' W 003°44'4 2.5
2018-Jun-24 23:54N 51°20' W 003°50'11 9.6
2018-Jun-24 22:44N 51°18' W 004°08'9 9.8
2018-Jun-24 21:49N 51°17' W 004°22'3 9.8
2018-Jun-24 21:30N 51°17' W 004°27'5 9.1
2018-Jun-24 20:55N 51°16' W 004°35'4 9.1
2018-Jun-24 20:29N 51°15' W 004°41'4 8.7
2018-Jun-24 20:01N 51°13' W 004°47'4 8.7
2018-Jun-24 19:30N 51°10' W 004°52'4 8.8
2018-Jun-24 19:01N 51°07' W 004°57'5 9.6
2018-Jun-24 18:31N 51°03' W 005°02'5 9.6
2018-Jun-24 18:00N 50°60' W 005°06'5 9.7
2018-Jun-24 17:30N 50°56' W 005°11'5 9.9
2018-Jun-24 17:00N 50°52' W 005°16'510.3
2018-Jun-24 16:31N 50°48' W 005°21'510.7
2018-Jun-24 16:01N 50°44' W 005°27'510.9
2018-Jun-24 15:30N 50°40' W 005°32'611.2
2018-Jun-24 15:01N 50°35' W 005°37'611.4
2018-Jun-24 14:31N 50°31' W 005°43'611.6
2018-Jun-24 14:00N 50°26' W 005°49'611.1
2018-Jun-24 13:30N 50°21' W 005°52'611.8
2018-Jun-24 13:00N 50°15' W 005°53'611.9
2018-Jun-24 12:30N 50°09' W 005°53'1011.6
2018-Jun-24 11:41N 49°60' W 005°53'211.0
2018-Jun-24 11:30N 49°58' W 005°53'810.9
2018-Jun-24 10:46N 49°50' W 005°57'3210.5
2018-Jun-24 07:46N 49°19' W 006°09'3 9.9
2018-Jun-24 07:29N 49°17' W 006°10'5 9.9
2018-Jun-24 07:01N 49°12' W 006°12'5 9.7
2018-Jun-24 06:30N 49°08' W 006°14'5 9.5
2018-Jun-24 06:01N 49°03' W 006°16'10 9.7
2018-Jun-24 04:58N 48°54' W 006°22'5310.2
2018-Jun-23 23:43N 48°03' W 006°47'2210.8
2018-Jun-23 21:43N 47°43' W 007°01'  

Dump ship's entire track history